Observations for LAS VEGAS MCCARRAN, NV (LAS)

KLAS 112156Z 32004KT 10SM FEW160 FEW200 18/M02 A3005 RMK AO2 SLP170 T01781022   
KLAS 112056Z 06006KT 10SM FEW160 SCT200 17/M02 A3007 RMK AO2 SLP175 T01721022 58025 
KLAS 111956Z 02006KT 10SM FEW160 SCT200 17/M02 A3010 RMK AO2 SLP186 T01721022   
KLAS 111856Z 30005KT 10SM SCT160 SCT200 15/M01 A3013 RMK AO2 SLP197 T01501006   
KLAS 111756Z 01004KT 10SM SCT160 SCT200 13/M01 A3015 RMK AO2 SLP204 T01331006 10133 20094 50013 
KLAS 111656Z 18003KT 10SM SCT160 BKN200 BKN250 11/01 A3016 RMK AO2 SLP210 T01060006 
KLAS 111556Z 18003KT 10SM FEW110 BKN160 BKN200 10/01 A3012 RMK AO2 SLP196 VIRGA DSNT E T01000011
KLAS 111456Z 00000KT 10SM SCT110 BKN160 BKN200 11/01 A3011 RMK AO2 SLP190 VIRGA E-S T01060006 52002 
KLAS 111356Z 00000KT 10SM FEW060 BKN100 OVC110 11/00 A3011 RMK AO2 SLP191 T01060000 
KLAS 111256Z 22004KT 10SM FEW060 BKN100 OVC110 11/01 A3010 RMK AO2 SLP186 T01060006 
KLAS 111156Z 21005KT 10SM SCT110 BKN250 10/01 A3010 RMK AO2 SLP188 T01000011 10117 20094 58002  
KLAS 111056Z 20005KT 10SM BKN150 OVC240 09/01 A3010 RMK AO2 SLP187 T00940011
KLAS 110956Z 20005KT 10SM BKN170 BKN240 10/01 A3011 RMK AO2 SLP192 T01000011
KLAS 110856Z 20003KT 10SM SCT170 BKN240 10/01 A3011 RMK AO2 SLP190 T01000011 58004  
KLAS 110756Z 00000KT 10SM FEW120 BKN170 BKN200 11/01 A3010 RMK AO2 SLP189 T01060011 401610072   
KLAS 110656Z 00000KT 10SM FEW120 BKN160 OVC200 11/01 A3013 RMK AO2 PRESRR SLP197 T01110006  
KLAS 110556Z 30003KT 10SM FEW120 OVC200 12/00 A3012 RMK AO2 SLP195 T01170000 10144 20111 53005  
KLAS 110456Z 28004KT 10SM SCT120 OVC200 12/00 A3010 RMK AO2 SLP190 T01170000
KLAS 110356Z 25004KT 10SM SCT120 OVC200 13/M01 A3011 RMK AO2 SLP191 T01281006   
KLAS 110256Z 00000KT 10SM SCT150 SCT200 BKN250 13/M01 A3010 RMK AO2 SLP192 T01331011 53003  
KLAS 110156Z 00000KT 10SM FEW150 SCT200 BKN250 13/M02 A3010 RMK AO2 SLP189 T01331017
KLAS 110056Z 02007KT 10SM FEW150 SCT200 BKN250 14/M02 A3008 RMK AO2 SLP184 T01391017
KLAS 102356Z 01006KT 10SM FEW150 SCT200 BKN250 14/M02 A3010 RMK AO2 SLP188 VIRGA NE-SE-S T01441017 10161 20128 55010
KLAS 102256Z 36004KT 10SM SCT150 BKN200 BKN250 15/M02 A3009 RMK AO2 SLP185 T01501017
KLAS 102156Z 33004KT 10SM FEW150 SCT200 BKN250 15/M02 A3010 RMK AO2 SLP189 T01501022